»·PEaware :: N48427 KSNA-KBLH

N48427 :: KSNA-KBLH

FLIGHT INFORMATION

Flight Status: Arrived
Operator: Privately registered:
United States
More flights under this callsign
Pilot: Carson T. (20437)
Aircraft: CESSNA 172 SKYHAWK
(C172)
More flights by this aircraft type
Origin: KSNA John Wayne-Orange Co
United States
Destination: KBLH Blythe
United States
More flights between these airports :: More routes between these airports
Route:
File this flight plan on PilotEdge
Remarks:
Altitude:
(Current/Filed)
7,500ft
Speed:
(Current/Filed)
120kts
Departed: 24-Oct-18 06:12 PM
Arrived: 24-Oct-18 07:35 PM
Distance/Time
Traveled:
158nm/1:22
Distance/Time
To Go:
Arrived

Flight Plot

Page will automatically refresh every two minutes.

Flight plan parsing failed; only flown route is shown


Map Options




Map Legend


Flown Route
Filed Route
Departure Airport
Arrival Airport
Navaid (VOR, NDB)
Fix

Horizontal Profiles

Position Reports

Time Latitude Longitude Heading Altitude Ground
Speed
24-Oct-18 17:58 33.676850 -117.871462 207 60ft 0kts
24-Oct-18 17:59 33.676850 -117.871462 207 60ft 0kts
24-Oct-18 18:00 33.676850 -117.871462 207 60ft 0kts
24-Oct-18 18:01 33.676850 -117.871462 207 60ft 0kts
24-Oct-18 18:02 33.676850 -117.871462 207 60ft 0kts
24-Oct-18 18:03 33.676850 -117.871462 207 60ft 0kts
24-Oct-18 18:04 33.676850 -117.871462 207 60ft 0kts
24-Oct-18 18:05 33.676824 -117.871478 205 60ft 2kts
24-Oct-18 18:06 33.676663 -117.871337 120 60ft 0kts
24-Oct-18 18:07 33.676663 -117.871337 120 60ft 0kts
24-Oct-18 18:08 33.676663 -117.871337 120 60ft 0kts
24-Oct-18 18:09 33.676663 -117.871337 120 60ft 0kts
24-Oct-18 18:10 33.676663 -117.871337 120 60ft 0kts
24-Oct-18 18:11 33.677916 -117.868914 26 60ft 19kts
24-Oct-18 18:12 33.681171 -117.866352 119 60ft 0kts
24-Oct-18 18:13 33.681171 -117.866352 119 60ft 0kts
24-Oct-18 18:14 33.675894 -117.868706 206 83ft 69kts
24-Oct-18 18:15 33.658988 -117.882895 254 678ft 82kts
24-Oct-18 18:16 33.653275 -117.910028 243 1367ft 84kts
24-Oct-18 18:17 33.642747 -117.940600 243 1517ft 112kts
24-Oct-18 18:18 33.622034 -117.948388 108 1764ft 110kts
24-Oct-18 18:19 33.621315 -117.912876 92 2362ft 103kts
24-Oct-18 18:20 33.621371 -117.879119 92 2958ft 100kts
24-Oct-18 18:21 33.621675 -117.845255 92 3475ft 103kts
24-Oct-18 18:22 33.622071 -117.810691 91 3975ft 104kts
24-Oct-18 18:23 33.622501 -117.775785 91 4474ft 105kts
24-Oct-18 18:24 33.622943 -117.740645 90 4976ft 105kts
24-Oct-18 18:25 33.623380 -117.705467 89 5478ft 105kts
24-Oct-18 18:26 33.623803 -117.670616 89 5978ft 104kts
24-Oct-18 18:27 33.624216 -117.636035 88 6480ft 103kts
24-Oct-18 18:28 33.624619 -117.601642 87 6943ft 105kts
24-Oct-18 18:29 33.625006 -117.565508 86 7352ft 110kts
24-Oct-18 18:30 33.625411 -117.527953 86 7570ft 127kts
24-Oct-18 18:31 33.625755 -117.484079 85 7562ft 132kts
24-Oct-18 18:32 33.626152 -117.440118 85 7565ft 132kts
24-Oct-18 18:33 33.626560 -117.396254 84 7568ft 131kts
24-Oct-18 18:34 33.626951 -117.352732 85 7571ft 130kts
24-Oct-18 18:35 33.625987 -117.309460 86 7570ft 130kts
24-Oct-18 18:36 33.625985 -117.266201 85 7570ft 129kts
24-Oct-18 18:37 33.626240 -117.223156 84 7570ft 129kts
24-Oct-18 18:38 33.626551 -117.180204 84 7570ft 129kts
24-Oct-18 18:39 33.626865 -117.137247 84 7570ft 129kts
24-Oct-18 18:40 33.627120 -117.101366 84 7566ft 129kts
24-Oct-18 18:41 33.627456 -117.051404 85 7551ft 129kts
24-Oct-18 18:42 33.627727 -117.008090 85 7538ft 129kts
24-Oct-18 18:43 33.622095 -116.973051 104 7527ft 130kts
24-Oct-18 18:44 33.620294 -116.925495 68 7513ft 125kts
24-Oct-18 18:45 33.625811 -116.890920 80 7502ft 127kts
24-Oct-18 18:46 33.628116 -116.841486 85 7497ft 127kts
24-Oct-18 18:47 33.628647 -116.806053 86 7497ft 127kts
24-Oct-18 18:48 33.628966 -116.763727 86 7497ft 127kts
24-Oct-18 18:49 33.629174 -116.721129 86 7498ft 127kts
24-Oct-18 18:50 33.629342 -116.678642 86 7498ft 127kts
24-Oct-18 18:51 33.629489 -116.636338 86 7498ft 127kts
24-Oct-18 18:52 33.629624 -116.593672 87 7492ft 128kts
24-Oct-18 18:53 33.629740 -116.550679 87 7485ft 129kts
24-Oct-18 18:54 33.629841 -116.507468 88 7479ft 130kts
24-Oct-18 18:55 33.629926 -116.463919 88 7472ft 130kts
24-Oct-18 18:56 33.629996 -116.420341 89 7465ft 131kts
24-Oct-18 18:57 33.630048 -116.376647 90 7461ft 131kts
24-Oct-18 18:58 33.630088 -116.333409 90 7458ft 130kts
24-Oct-18 18:59 33.630115 -116.290059 91 7456ft 130kts
24-Oct-18 19:00 33.630127 -116.246594 91 7455ft 130kts
24-Oct-18 19:01 33.630123 -116.203632 91 7453ft 130kts
24-Oct-18 19:02 33.630104 -116.160259 91 7452ft 129kts
24-Oct-18 19:03 33.630070 -116.117073 91 7452ft 129kts
24-Oct-18 19:04 33.630021 -116.073826 91 7452ft 129kts
24-Oct-18 19:05 33.629957 -116.030523 91 7452ft 129kts
24-Oct-18 19:06 33.629878 -115.987487 91 7452ft 129kts
24-Oct-18 19:07 33.629784 -115.944104 91 7452ft 129kts
24-Oct-18 19:08 33.629676 -115.900857 91 7452ft 129kts
24-Oct-18 19:09 33.629551 -115.857569 91 7452ft 129kts
24-Oct-18 19:10 33.629411 -115.814288 91 7452ft 130kts
24-Oct-18 19:11 33.629256 -115.770954 91 7452ft 130kts
24-Oct-18 19:12 33.629086 -115.727665 91 7452ft 130kts
24-Oct-18 19:13 33.628901 -115.684340 91 7452ft 130kts
24-Oct-18 19:14 33.628701 -115.640963 91 7452ft 130kts
24-Oct-18 19:15 33.628486 -115.597664 91 7452ft 130kts
24-Oct-18 19:16 33.628256 -115.554379 91 7453ft 130kts
24-Oct-18 19:17 33.628010 -115.510931 91 7453ft 130kts
24-Oct-18 19:18 33.627727 -115.469268 87 7459ft 119kts
24-Oct-18 19:19 33.627520 -115.430288 87 7461ft 115kts
24-Oct-18 19:20 33.627294 -115.392030 87 7468ft 114kts
24-Oct-18 19:21 33.627058 -115.353612 87 7475ft 117kts
24-Oct-18 19:22 33.626806 -115.314295 91 7482ft 123kts
24-Oct-18 19:23 33.626043 -115.271293 91 7464ft 133kts
24-Oct-18 19:24 33.625481 -115.227624 91 6961ft 129kts
24-Oct-18 19:25 33.625089 -115.184630 91 6460ft 129kts
24-Oct-18 19:26 33.624690 -115.141522 91 5959ft 129kts
24-Oct-18 19:27 33.624278 -115.098706 92 5460ft 128kts
24-Oct-18 19:28 33.623854 -115.056136 92 4960ft 127kts
24-Oct-18 19:29 33.623420 -115.013923 92 4461ft 126kts
24-Oct-18 19:30 33.622974 -114.971948 92 3960ft 125kts
24-Oct-18 19:31 33.622518 -114.930380 92 3461ft 124kts
24-Oct-18 19:32 33.622055 -114.889158 92 2962ft 123kts
24-Oct-18 19:33 33.621580 -114.848212 92 2463ft 122kts
24-Oct-18 19:34 33.618800 -114.808078 100 1966ft 121kts
24-Oct-18 19:35 33.617324 -114.768310 92 1467ft 102kts
24-Oct-18 19:36 33.616516 -114.740946 95 878ft 68kts
24-Oct-18 19:37 33.616439 -114.721397 89 394ft 38kts
24-Oct-18 19:38 33.615373 -114.715603 134 394ft 9kts
24-Oct-18 19:39 33.614331 -114.712117 105 393ft 13kts
24-Oct-18 19:40 33.614169 -114.711171 93 393ft 0kts
24-Oct-18 19:41 33.614169 -114.711171 93 393ft 0kts
24-Oct-18 19:42 33.614169 -114.711171 93 393ft 0kts
24-Oct-18 19:43 33.614169 -114.711171 93 393ft 0kts
24-Oct-18 19:44 33.614169 -114.711171 93 393ft 0kts
24-Oct-18 19:45 33.614169 -114.711171 93 393ft 0kts
24-Oct-18 19:46 33.614169 -114.711171 93 393ft 0kts
24-Oct-18 19:47 33.614169 -114.711171 93 393ft 0kts
24-Oct-18 19:48 33.614169 -114.711171 93 393ft 0kts
24-Oct-18 19:49 33.614169 -114.711171 93 393ft 0kts
24-Oct-18 19:50 33.614169 -114.711171 93 393ft 0kts
24-Oct-18 19:51 33.614169 -114.711171 93 393ft 0kts

Navigation Log

Ident Type
Flight plan parsing failed, navigation log unavailable